createdAt,value
2018-02-14T00:00:15.427Z,72.73
2018-02-14T00:02:41.620Z,72.89
2018-02-14T00:05:07.789Z,72.64
2018-02-14T00:07:33.951Z,72.45
2018-02-14T00:10:00.111Z,73.18
2018-02-14T00:12:26.347Z,72.43
2018-02-14T00:14:52.546Z,72.37
2018-02-14T00:17:18.710Z,72.04
2018-02-14T00:19:44.956Z,72.17
2018-02-14T00:22:11.186Z,72.34
2018-02-14T00:24:37.352Z,72.73
2018-02-14T00:27:03.484Z,72.48
2018-02-14T00:29:29.656Z,72.88
2018-02-14T00:31:55.851Z,73.22
2018-02-14T00:34:21.994Z,73.30
2018-02-14T00:36:48.157Z,72.18
2018-02-14T00:39:14.361Z,73.58
2018-02-14T00:41:40.561Z,72.71
2018-02-14T00:44:06.819Z,72.90
2018-02-14T00:46:33.930Z,72.42
2018-02-14T00:49:00.101Z,71.96
2018-02-14T00:51:26.330Z,72.16
2018-02-14T00:53:52.481Z,72.47
2018-02-14T00:56:18.650Z,71.76
2018-02-14T00:58:44.875Z,71.87
2018-02-14T01:01:11.071Z,71.58
2018-02-14T01:03:37.241Z,72.37
2018-02-14T01:06:03.445Z,71.87
2018-02-14T01:08:29.563Z,72.13
2018-02-14T01:10:55.775Z,72.13
2018-02-14T01:13:21.979Z,72.20
2018-02-14T01:15:48.178Z,72.26
2018-02-14T01:18:14.312Z,72.62
2018-02-14T01:20:43.503Z,73.25
2018-02-14T01:23:09.727Z,72.44
2018-02-14T01:25:35.963Z,72.40
2018-02-14T01:28:02.120Z,72.49
2018-02-14T01:30:28.269Z,72.53
2018-02-14T01:32:54.492Z,72.84
2018-02-14T01:35:20.642Z,72.74
2018-02-14T01:37:46.792Z,72.91
2018-02-14T01:40:13.005Z,73.04
2018-02-14T01:42:39.252Z,73.36
2018-02-14T01:45:05.437Z,73.29
2018-02-14T01:47:31.632Z,73.49
2018-02-14T01:49:57.805Z,73.39
2018-02-14T01:52:23.979Z,73.53
2018-02-14T01:54:50.173Z,73.71
2018-02-14T01:57:16.343Z,73.75
2018-02-14T01:59:42.472Z,74.53
2018-02-14T02:02:08.692Z,75.77
2018-02-14T02:04:34.868Z,75.50
2018-02-14T02:07:01.045Z,75.63
2018-02-14T02:09:27.260Z,75.46
2018-02-14T02:11:53.562Z,75.52
2018-02-14T02:14:19.752Z,76.12
2018-02-14T02:16:45.978Z,75.62
2018-02-14T02:19:13.065Z,76.02
2018-02-14T02:21:39.283Z,76.33
2018-02-14T02:24:05.488Z,75.63
2018-02-14T02:26:31.664Z,76.44
2018-02-14T02:28:57.815Z,76.54
2018-02-14T02:31:24.045Z,76.38
2018-02-14T02:33:50.180Z,76.26
2018-02-14T02:36:16.339Z,76.11
2018-02-14T02:38:42.545Z,76.07
2018-02-14T02:41:08.756Z,76.35
2018-02-14T02:43:34.952Z,76.39
2018-02-14T02:46:01.199Z,76.85
2018-02-14T02:48:27.433Z,76.42
2018-02-14T02:50:53.645Z,75.90
2018-02-14T02:53:20.861Z,76.02
2018-02-14T02:55:47.052Z,75.95
2018-02-14T02:58:13.243Z,76.15
2018-02-14T03:00:39.457Z,76.20
2018-02-14T03:03:05.879Z,76.90
2018-02-14T03:05:32.087Z,76.90
2018-02-14T03:07:58.236Z,75.86
2018-02-14T03:10:24.388Z,76.05
2018-02-14T03:12:50.641Z,76.45
2018-02-14T03:15:16.791Z,76.75
2018-02-14T03:17:42.886Z,76.93
2018-02-14T03:20:09.016Z,76.43
2018-02-14T03:22:35.182Z,76.47
2018-02-14T03:25:01.273Z,76.21
2018-02-14T03:27:27.383Z,76.16
2018-02-14T03:29:53.566Z,75.96
2018-02-14T03:32:19.714Z,76.46
2018-02-14T03:34:45.887Z,77.07
2018-02-14T03:37:12.055Z,77.19
2018-02-14T03:39:38.605Z,76.70
2018-02-14T03:42:04.778Z,77.29
2018-02-14T03:44:30.898Z,77.62
2018-02-14T03:46:57.033Z,77.35
2018-02-14T03:49:23.183Z,77.85
2018-02-14T03:51:49.356Z,77.72
2018-02-14T03:54:15.513Z,77.37
2018-02-14T03:56:41.697Z,77.32
2018-02-14T03:59:07.875Z,77.66
2018-02-14T04:01:34.032Z,77.75
2018-02-14T04:04:00.219Z,78.02
2018-02-14T04:06:26.440Z,77.90
2018-02-14T04:08:52.612Z,77.92
2018-02-14T04:11:18.780Z,78.23
2018-02-14T04:13:44.887Z,79.16
2018-02-14T04:16:10.971Z,78.98
2018-02-14T04:18:37.123Z,78.51
2018-02-14T04:21:03.245Z,78.67
2018-02-14T04:23:29.440Z,78.36
2018-02-14T04:25:55.550Z,78.53
2018-02-14T04:28:22.687Z,78.80
2018-02-14T04:30:48.882Z,78.60
2018-02-14T04:33:15.062Z,78.57
2018-02-14T04:35:41.172Z,78.26
2018-02-14T04:38:07.305Z,77.78
2018-02-14T04:40:33.444Z,77.70
2018-02-14T04:42:59.588Z,77.84
2018-02-14T04:45:25.700Z,77.12
2018-02-14T04:47:51.833Z,77.56
2018-02-14T04:50:17.990Z,77.06
2018-02-14T04:52:44.161Z,77.25
2018-02-14T04:55:10.306Z,76.77
2018-02-14T04:57:36.407Z,76.61
2018-02-14T05:00:02.608Z,76.90
2018-02-14T05:02:29.090Z,76.49
2018-02-14T05:04:55.206Z,76.40
2018-02-14T05:07:21.313Z,76.18
2018-02-14T05:09:47.452Z,76.28
2018-02-14T05:12:13.624Z,76.25
2018-02-14T05:14:39.718Z,76.30
2018-02-14T05:17:05.880Z,76.60
2018-02-14T05:19:31.985Z,76.41
2018-02-14T05:21:58.148Z,76.20
2018-02-14T05:24:24.280Z,76.56
2018-02-14T05:26:50.380Z,76.28
2018-02-14T05:29:16.535Z,76.31
2018-02-14T05:31:42.679Z,76.34
2018-02-14T05:34:08.785Z,76.99
2018-02-14T05:36:34.910Z,76.78
2018-02-14T05:39:01.064Z,77.76
2018-02-14T05:41:27.178Z,77.87
2018-02-14T05:43:53.338Z,77.77
2018-02-14T05:46:19.463Z,78.30
2018-02-14T05:48:45.586Z,78.74
2018-02-14T05:51:11.745Z,78.58
2018-02-14T05:53:37.924Z,79.07
2018-02-14T05:56:04.042Z,79.14
2018-02-14T05:58:30.242Z,79.64
2018-02-14T06:00:56.324Z,80.01
2018-02-14T06:03:22.533Z,80.14
2018-02-14T06:05:48.669Z,79.94
2018-02-14T06:08:14.781Z,80.11
2018-02-14T06:10:40.874Z,80.38
2018-02-14T06:13:07.035Z,80.61
2018-02-14T06:15:33.128Z,81.20
2018-02-14T06:17:59.231Z,81.63
2018-02-14T06:20:25.378Z,81.55
2018-02-14T06:22:51.518Z,81.55
2018-02-14T06:25:17.642Z,81.63
2018-02-14T06:27:43.752Z,81.65
2018-02-14T06:30:09.944Z,82.40
2018-02-14T06:32:36.094Z,82.57
2018-02-14T06:35:02.192Z,81.92
2018-02-14T06:37:28.333Z,81.93
2018-02-14T06:39:54.448Z,81.90
2018-02-14T06:42:21.377Z,81.86
2018-02-14T06:44:47.478Z,81.87
2018-02-14T06:47:13.619Z,82.09
2018-02-14T06:49:39.744Z,81.84
2018-02-14T06:52:05.897Z,82.09
2018-02-14T06:54:32.015Z,81.98
2018-02-14T06:56:58.145Z,82.05
2018-02-14T06:59:24.312Z,81.96
2018-02-14T07:01:50.419Z,81.64
2018-02-14T07:04:16.566Z,81.48
2018-02-14T07:06:42.730Z,81.25
2018-02-14T07:09:08.878Z,80.95
2018-02-14T07:11:34.979Z,80.64
2018-02-14T07:14:01.129Z,80.53
2018-02-14T07:16:27.408Z,80.27
2018-02-14T07:18:53.546Z,80.22
2018-02-14T07:21:19.678Z,79.88
2018-02-14T07:23:45.836Z,79.87
2018-02-14T07:26:11.969Z,79.71
2018-02-14T07:28:38.126Z,79.52
2018-02-14T07:31:04.303Z,79.47
2018-02-14T07:33:30.518Z,79.27
2018-02-14T07:35:56.667Z,79.84
2018-02-14T07:38:22.806Z,79.44
2018-02-14T07:40:48.990Z,79.47
2018-02-14T07:43:15.147Z,79.86
2018-02-14T07:45:41.327Z,79.39
2018-02-14T07:48:07.507Z,79.60
2018-02-14T07:50:33.680Z,79.69
2018-02-14T07:52:59.852Z,79.56
2018-02-14T07:55:25.993Z,79.24
2018-02-14T07:57:52.167Z,79.45
2018-02-14T08:00:18.305Z,79.57
2018-02-14T08:02:44.491Z,79.47
2018-02-14T08:05:10.614Z,79.23
2018-02-14T08:07:36.743Z,79.09
2018-02-14T08:10:02.906Z,79.07
2018-02-14T08:12:29.080Z,79.20
2018-02-14T08:14:55.196Z,79.04
2018-02-14T08:17:21.365Z,79.16
2018-02-14T08:19:47.545Z,78.74
2018-02-14T08:22:13.649Z,78.50
2018-02-14T08:24:39.797Z,77.84
2018-02-14T08:27:05.922Z,77.92
2018-02-14T08:29:32.092Z,77.61
2018-02-14T08:31:58.268Z,77.77
2018-02-14T08:34:24.464Z,77.89
2018-02-14T08:36:50.564Z,78.21
2018-02-14T08:39:16.689Z,78.44
2018-02-14T08:41:42.826Z,78.49
2018-02-14T08:44:08.999Z,78.56
2018-02-14T08:46:35.148Z,78.52
2018-02-14T08:49:01.351Z,77.95
2018-02-14T08:51:27.518Z,76.70
2018-02-14T08:53:53.686Z,74.70
2018-02-14T08:56:19.849Z,71.97
2018-02-14T08:58:46.004Z,68.40
2018-02-14T09:01:12.128Z,66.39
2018-02-14T09:03:38.288Z,67.66
2018-02-14T09:06:04.415Z,69.43
2018-02-14T09:08:30.538Z,70.36
2018-02-14T09:10:56.645Z,72.08
2018-02-14T09:13:22.812Z,72.55
2018-02-14T09:15:48.922Z,73.35
2018-02-14T09:18:15.041Z,74.13
2018-02-14T09:20:41.395Z,74.09
2018-02-14T09:23:07.558Z,73.79
2018-02-14T09:25:33.720Z,74.35
2018-02-14T09:27:59.883Z,74.33
2018-02-14T09:30:26.033Z,74.48
2018-02-14T09:32:52.187Z,74.92
2018-02-14T09:35:18.328Z,74.95
2018-02-14T09:37:44.516Z,75.06
2018-02-14T09:40:10.673Z,75.48
2018-02-14T09:42:36.817Z,75.60
2018-02-14T09:45:03.011Z,75.52
2018-02-14T09:47:29.167Z,75.14
2018-02-14T09:49:55.326Z,74.95
2018-02-14T09:52:21.470Z,74.70
2018-02-14T09:54:47.602Z,75.04
2018-02-14T09:57:13.759Z,74.74
2018-02-14T09:59:39.924Z,74.33
2018-02-14T10:02:06.062Z,74.60
2018-02-14T10:04:32.197Z,74.57
2018-02-14T10:06:58.421Z,74.87
2018-02-14T10:09:24.713Z,74.82
2018-02-14T10:11:50.843Z,74.54
2018-02-14T10:14:16.979Z,74.32
2018-02-14T10:16:43.137Z,74.27
2018-02-14T10:19:09.269Z,74.70
2018-02-14T10:21:35.400Z,74.36
2018-02-14T10:24:01.608Z,74.88
2018-02-14T10:26:27.717Z,74.14
2018-02-14T10:28:53.921Z,74.04
2018-02-14T10:31:20.032Z,74.28
2018-02-14T10:33:46.233Z,73.81
2018-02-14T10:36:12.363Z,73.73
2018-02-14T10:38:38.540Z,74.05
2018-02-14T10:41:04.669Z,73.90
2018-02-14T10:43:30.860Z,73.86
2018-02-14T10:45:56.979Z,72.78
2018-02-14T10:48:23.100Z,72.54
2018-02-14T10:50:49.259Z,72.98
2018-02-14T10:53:15.427Z,73.09
2018-02-14T10:55:41.552Z,73.28
2018-02-14T10:58:07.727Z,72.87
2018-02-14T11:00:39.875Z,72.55
2018-02-14T11:03:12.136Z,72.62
2018-02-14T11:05:39.405Z,72.40
2018-02-14T11:08:05.668Z,72.04
2018-02-14T11:10:31.817Z,72.04
2018-02-14T11:12:57.944Z,71.83
2018-02-14T11:15:24.085Z,71.35
2018-02-14T11:17:50.245Z,70.93
2018-02-14T11:20:16.384Z,71.13
2018-02-14T11:22:42.495Z,71.85
2018-02-14T11:25:08.695Z,70.91
2018-02-14T11:27:34.843Z,70.31
2018-02-14T11:30:01.127Z,69.83
2018-02-14T11:32:27.277Z,70.04
2018-02-14T11:34:53.701Z,70.13
2018-02-14T11:37:19.798Z,69.80
2018-02-14T11:39:45.962Z,69.79
2018-02-14T11:42:12.080Z,69.52
2018-02-14T11:44:38.265Z,69.18
2018-02-14T11:47:04.383Z,69.64
2018-02-14T11:49:30.491Z,69.40
2018-02-14T11:51:56.641Z,68.73
2018-02-14T11:54:22.819Z,69.16
2018-02-14T11:56:48.943Z,68.13
2018-02-14T11:59:15.111Z,69.12
2018-02-14T12:01:41.239Z,68.34
2018-02-14T12:04:07.388Z,68.62
2018-02-14T12:06:33.546Z,68.48
2018-02-14T12:08:59.684Z,68.34
2018-02-14T12:11:25.861Z,67.50
2018-02-14T12:13:52.058Z,67.11
2018-02-14T12:16:18.189Z,67.29
2018-02-14T12:18:44.285Z,67.02
2018-02-14T12:21:10.408Z,67.33
2018-02-14T12:23:36.545Z,66.38
2018-02-14T12:26:02.736Z,65.85
2018-02-14T12:28:28.912Z,66.01
2018-02-14T12:30:55.165Z,66.23
2018-02-14T12:33:21.394Z,66.06
2018-02-14T12:35:47.631Z,65.27
2018-02-14T12:38:13.768Z,65.63
2018-02-14T12:40:40.037Z,65.10
2018-02-14T12:43:06.310Z,64.92
2018-02-14T12:45:32.754Z,64.82
2018-02-14T12:47:58.972Z,64.96
2018-02-14T12:50:25.220Z,64.96
2018-02-14T12:52:51.472Z,64.51
2018-02-14T12:55:17.686Z,64.83
2018-02-14T12:57:43.848Z,64.15
2018-02-14T13:00:10.056Z,64.04
2018-02-14T13:02:36.496Z,64.00
2018-02-14T13:05:02.701Z,64.17
2018-02-14T13:07:28.873Z,64.50
2018-02-14T13:09:55.096Z,64.04
2018-02-14T13:12:21.385Z,64.18
2018-02-14T13:14:47.643Z,63.90
2018-02-14T13:17:13.898Z,63.36
2018-02-14T13:19:40.103Z,63.89
2018-02-14T13:22:06.285Z,64.20
2018-02-14T13:24:32.534Z,63.88
2018-02-14T13:26:58.743Z,64.68
2018-02-14T13:29:24.980Z,64.84
2018-02-14T13:31:51.122Z,65.11
2018-02-14T13:34:17.330Z,64.22
2018-02-14T13:36:43.490Z,64.88
2018-02-14T13:39:09.670Z,64.61
2018-02-14T13:41:35.976Z,63.68
2018-02-14T13:44:02.222Z,63.24
2018-02-14T13:46:33.787Z,63.38
2018-02-14T13:48:59.995Z,63.16
2018-02-14T13:51:26.221Z,63.84
2018-02-14T13:53:52.417Z,64.14
2018-02-14T13:56:18.693Z,63.81
2018-02-14T13:58:44.922Z,64.13
2018-02-14T14:01:11.092Z,64.68
2018-02-14T14:03:37.321Z,64.51
2018-02-14T14:06:03.572Z,64.33
2018-02-14T14:08:29.796Z,64.28
2018-02-14T14:10:56.029Z,65.36
2018-02-14T14:13:22.213Z,64.86
2018-02-14T14:15:48.476Z,64.29
2018-02-14T14:18:15.943Z,64.01
2018-02-14T14:20:42.195Z,64.41
2018-02-14T14:23:08.411Z,65.33
2018-02-14T14:25:34.655Z,64.61
2018-02-14T14:28:00.827Z,64.99
2018-02-14T14:30:27.244Z,64.82
2018-02-14T14:32:53.392Z,65.40
2018-02-14T14:35:19.709Z,65.14
2018-02-14T14:37:45.913Z,65.31
2018-02-14T14:40:12.098Z,65.36
2018-02-14T14:42:38.571Z,65.44
2018-02-14T14:45:04.833Z,65.43
2018-02-14T14:47:31.024Z,64.74
2018-02-14T14:49:57.188Z,65.12
2018-02-14T14:52:24.286Z,64.83
2018-02-14T14:54:50.512Z,64.96
2018-02-14T14:57:16.788Z,65.76
2018-02-14T14:59:43.027Z,65.40
2018-02-14T15:02:09.176Z,65.50
2018-02-14T15:04:35.456Z,66.53
2018-02-14T15:07:01.666Z,66.12
2018-02-14T15:09:27.858Z,66.92
2018-02-14T15:11:54.105Z,66.99
2018-02-14T15:14:20.351Z,67.57
2018-02-14T15:16:46.614Z,67.40
2018-02-14T15:19:12.773Z,67.86
2018-02-14T15:21:39.021Z,67.46
2018-02-14T15:24:05.184Z,68.01
2018-02-14T15:26:31.398Z,67.78
2018-02-14T15:28:57.650Z,68.13
2018-02-14T15:31:23.824Z,68.21
2018-02-14T15:33:50.089Z,68.96
2018-02-14T15:36:16.335Z,68.71
2018-02-14T15:38:42.519Z,69.01
2018-02-14T15:41:08.673Z,68.99
2018-02-14T15:46:07.955Z,69.77
2018-02-14T15:48:34.268Z,70.33
2018-02-14T15:51:00.510Z,70.16
2018-02-14T15:53:26.677Z,70.86
2018-02-14T15:55:52.899Z,70.21
2018-02-14T15:58:19.052Z,70.76
2018-02-14T16:00:45.264Z,71.23
2018-02-14T16:03:11.503Z,70.49
2018-02-14T16:05:37.741Z,71.19
2018-02-14T16:08:04.005Z,71.17
2018-02-14T16:10:30.298Z,71.24
2018-02-14T16:12:56.526Z,71.23
2018-02-14T16:15:22.770Z,71.36
2018-02-14T16:17:48.960Z,71.37
2018-02-14T16:20:15.115Z,71.44
2018-02-14T16:22:41.326Z,71.65
2018-02-14T16:25:07.532Z,71.56
2018-02-14T16:27:33.754Z,71.53
2018-02-14T16:30:00.036Z,71.29
2018-02-14T16:32:26.200Z,71.40
2018-02-14T16:34:52.413Z,71.46
2018-02-14T16:37:18.908Z,71.50
2018-02-14T16:39:45.073Z,71.26
2018-02-14T16:42:11.266Z,71.52
2018-02-14T16:44:37.536Z,71.45
2018-02-14T16:47:03.760Z,71.22
2018-02-14T16:56:17.128Z,71.28
2018-02-14T16:58:43.361Z,71.19
2018-02-14T17:01:09.596Z,71.33
2018-02-14T17:03:35.847Z,71.22
2018-02-14T17:06:02.282Z,70.92
2018-02-14T17:08:28.451Z,71.25
2018-02-14T17:10:54.709Z,71.17
2018-02-14T17:13:21.031Z,71.04
2018-02-14T17:15:47.284Z,71.28
2018-02-14T17:18:13.510Z,71.16
2018-02-14T17:20:39.798Z,71.90
2018-02-14T17:23:05.996Z,71.88
2018-02-14T17:25:32.270Z,71.72
2018-02-14T17:27:58.436Z,71.77
2018-02-14T17:30:24.706Z,71.52
2018-02-14T17:32:50.903Z,71.19
2018-02-14T17:35:17.230Z,71.03
2018-02-14T17:37:43.480Z,71.22
2018-02-14T17:40:09.658Z,71.28
2018-02-14T17:42:35.807Z,71.08
2018-02-14T17:45:02.055Z,71.26
2018-02-14T17:47:28.237Z,71.00
2018-02-14T17:49:54.384Z,71.22
2018-02-14T17:52:20.643Z,71.11
2018-02-14T17:54:46.920Z,71.31
2018-02-14T17:57:13.174Z,71.38
2018-02-14T17:59:39.401Z,71.28
2018-02-14T18:02:05.629Z,71.52
2018-02-14T18:04:31.908Z,71.43
2018-02-14T18:06:58.122Z,71.69
2018-02-14T18:09:24.354Z,71.63
2018-02-14T18:11:50.534Z,71.40
2018-02-14T18:14:16.794Z,71.52
2018-02-14T18:16:43.018Z,71.34
2018-02-14T18:19:09.284Z,71.72
2018-02-14T18:21:35.432Z,71.50
2018-02-14T18:24:01.635Z,71.87
2018-02-14T18:26:27.838Z,71.68
2018-02-14T18:28:54.060Z,71.29
2018-02-14T18:31:20.282Z,71.57
2018-02-14T18:33:46.560Z,71.60
2018-02-14T18:36:12.740Z,71.58
2018-02-14T18:38:38.934Z,71.79
2018-02-14T18:41:05.108Z,72.28
2018-02-14T18:43:31.363Z,72.29
2018-02-14T18:45:57.581Z,72.13
2018-02-14T18:48:23.763Z,72.27
2018-02-14T18:50:49.992Z,72.22
2018-02-14T18:53:16.255Z,72.39
2018-02-14T18:55:42.491Z,72.84
2018-02-14T18:58:08.746Z,72.96
2018-02-14T19:00:34.962Z,73.29
2018-02-14T19:03:01.162Z,73.13
2018-02-14T19:05:27.381Z,73.49
2018-02-14T19:07:53.595Z,73.44
2018-02-14T19:10:19.774Z,73.57
2018-02-14T19:12:45.960Z,73.50
2018-02-14T19:15:12.194Z,73.56
2018-02-14T19:17:38.441Z,73.45
2018-02-14T19:20:04.642Z,73.58
2018-02-14T19:22:30.880Z,73.95
2018-02-14T19:24:57.057Z,73.95
2018-02-14T19:27:23.276Z,73.77
2018-02-14T19:29:49.491Z,73.83
2018-02-14T19:32:15.873Z,74.00
2018-02-14T19:34:42.178Z,73.93
2018-02-14T19:37:08.392Z,74.13
2018-02-14T19:39:34.523Z,74.37
2018-02-14T19:42:00.710Z,74.11
2018-02-14T19:44:27.958Z,74.27
2018-02-14T19:46:54.179Z,74.91
2018-02-14T19:49:20.347Z,74.64
2018-02-14T19:51:48.209Z,74.75
2018-02-14T19:54:14.529Z,75.15
2018-02-14T19:56:40.799Z,75.73
2018-02-14T19:59:07.004Z,76.20
2018-02-14T20:01:33.185Z,77.17
2018-02-14T20:03:59.404Z,77.36
2018-02-14T20:06:25.779Z,77.79
2018-02-14T20:08:51.958Z,78.60
2018-02-14T20:11:18.178Z,79.54
2018-02-14T20:13:44.385Z,80.38
2018-02-14T20:16:10.648Z,79.98
2018-02-14T20:18:36.908Z,80.97
2018-02-14T20:21:03.159Z,81.38
2018-02-14T20:23:29.400Z,81.64
2018-02-14T20:25:55.628Z,82.01
2018-02-14T20:28:21.825Z,81.84
2018-02-14T20:30:48.044Z,81.70
2018-02-14T20:33:14.249Z,81.98
2018-02-14T20:35:40.426Z,82.05
2018-02-14T20:38:06.683Z,81.68
2018-02-14T20:40:32.880Z,81.64
2018-02-14T20:42:59.076Z,81.28
2018-02-14T20:45:25.289Z,80.52
2018-02-14T20:47:51.509Z,80.97
2018-02-14T20:50:17.684Z,80.97
2018-02-14T20:52:43.979Z,80.70
2018-02-14T20:55:10.143Z,80.58
2018-02-14T20:57:36.364Z,80.52
2018-02-14T21:00:02.676Z,80.02
2018-02-14T21:02:28.862Z,80.32
2018-02-14T21:04:55.042Z,80.01
2018-02-14T21:07:21.259Z,79.87
2018-02-14T21:09:47.534Z,79.34
2018-02-14T21:12:13.701Z,79.66
2018-02-14T21:14:39.859Z,79.77
2018-02-14T21:17:06.111Z,79.63
2018-02-14T21:19:32.303Z,79.50
2018-02-14T21:21:58.529Z,79.97
2018-02-14T21:24:24.804Z,79.47
2018-02-14T21:26:50.998Z,79.26
2018-02-14T21:29:17.200Z,79.22
2018-02-14T21:31:43.424Z,79.28
2018-02-14T21:34:09.574Z,79.45
2018-02-14T21:36:35.806Z,79.79
2018-02-14T21:39:02.042Z,80.29
2018-02-14T21:41:28.202Z,80.71
2018-02-14T21:43:54.366Z,80.95
2018-02-14T21:46:20.555Z,81.26
2018-02-14T21:48:47.059Z,81.33
2018-02-14T21:51:14.094Z,81.72
2018-02-14T21:53:40.262Z,82.14
2018-02-14T21:56:06.453Z,82.49
2018-02-14T21:58:32.670Z,82.75
2018-02-14T22:00:58.876Z,82.65
2018-02-14T22:03:25.035Z,82.90
2018-02-14T22:05:52.067Z,83.79
2018-02-14T22:08:18.260Z,83.65
2018-02-14T22:10:44.447Z,84.03
2018-02-14T22:13:10.625Z,84.68
2018-02-14T22:15:36.830Z,84.95
2018-02-14T22:18:03.063Z,85.56
2018-02-14T22:20:29.243Z,85.87
2018-02-14T22:22:55.398Z,86.56
2018-02-14T22:25:21.620Z,86.41
2018-02-14T22:27:47.853Z,86.77
2018-02-14T22:30:14.097Z,86.93
2018-02-14T22:32:40.262Z,87.00
2018-02-14T22:35:06.474Z,86.75
2018-02-14T22:37:32.745Z,87.47
2018-02-14T22:39:58.919Z,87.52
2018-02-14T22:42:25.134Z,87.45
2018-02-14T22:44:51.311Z,87.50
2018-02-14T22:47:17.591Z,87.99
2018-02-14T22:49:43.765Z,87.35
2018-02-14T22:52:10.007Z,87.87
2018-02-14T22:54:36.173Z,87.75
2018-02-14T22:57:02.474Z,87.94
2018-02-14T22:59:28.681Z,87.76
2018-02-14T23:01:55.894Z,88.05
2018-02-14T23:04:22.086Z,88.42
2018-02-14T23:06:48.316Z,88.39
2018-02-14T23:09:14.502Z,88.81
2018-02-14T23:11:40.818Z,88.68
2018-02-14T23:14:07.317Z,88.70
2018-02-14T23:16:33.490Z,88.41
2018-02-14T23:18:59.713Z,88.04
2018-02-14T23:21:25.963Z,88.04
2018-02-14T23:23:52.118Z,87.99
2018-02-14T23:26:18.377Z,88.03
2018-02-14T23:28:44.609Z,88.04
2018-02-14T23:31:10.817Z,88.15
2018-02-14T23:33:36.994Z,88.11
2018-02-14T23:36:03.196Z,87.86
2018-02-14T23:38:29.405Z,87.54
2018-02-14T23:40:55.613Z,87.54
2018-02-14T23:43:21.774Z,87.76
2018-02-14T23:45:47.964Z,87.83
2018-02-14T23:48:14.150Z,87.68
2018-02-14T23:50:40.415Z,87.99
2018-02-14T23:53:06.607Z,88.02
2018-02-14T23:55:32.762Z,88.16
2018-02-14T23:57:58.941Z,88.25
